createdAt,value
2023-05-09T00:00:12.676Z,16.10
2023-05-09T00:02:41.184Z,16.10
2023-05-09T00:05:10.007Z,16.10
2023-05-09T00:07:37.852Z,16.00
2023-05-09T00:10:06.785Z,15.90
2023-05-09T00:12:34.724Z,15.90
2023-05-09T00:15:04.176Z,15.90
2023-05-09T00:17:32.293Z,15.90
2023-05-09T00:20:01.575Z,15.90
2023-05-09T00:22:29.426Z,16.00
2023-05-09T00:24:57.298Z,15.90
2023-05-09T00:27:25.286Z,15.90
2023-05-09T00:29:53.109Z,15.90
2023-05-09T00:32:22.307Z,15.90
2023-05-09T00:34:50.330Z,15.90
2023-05-09T00:37:19.104Z,16.00
2023-05-09T00:39:47.001Z,16.00
2023-05-09T00:42:14.876Z,16.10
2023-05-09T00:44:42.773Z,16.10
2023-05-09T00:47:10.726Z,16.20
2023-05-09T00:49:39.923Z,16.10
2023-05-09T00:52:07.802Z,16.00
2023-05-09T00:54:35.749Z,16.00
2023-05-09T00:57:03.736Z,15.90
2023-05-09T00:59:31.803Z,15.90
2023-05-09T01:01:59.678Z,15.90
2023-05-09T01:04:27.999Z,15.80
2023-05-09T01:07:06.044Z,15.80
2023-05-09T01:09:39.775Z,15.80
2023-05-09T01:12:14.984Z,15.70
2023-05-09T01:14:51.582Z,15.60
2023-05-09T01:17:27.531Z,15.70
2023-05-09T01:20:01.224Z,15.80
2023-05-09T01:22:34.865Z,15.90
2023-05-09T01:25:29.105Z,15.90
2023-05-09T01:28:04.101Z,15.90
2023-05-09T01:30:37.081Z,15.90
2023-05-09T01:33:08.883Z,15.90
2023-05-09T01:35:39.894Z,15.90
2023-05-09T01:38:20.700Z,15.90
2023-05-09T01:40:52.767Z,16.00
2023-05-09T01:43:22.649Z,16.00
2023-05-09T01:45:53.325Z,16.00
2023-05-09T01:48:26.210Z,15.90
2023-05-09T01:50:55.197Z,16.00
2023-05-09T01:53:25.742Z,15.90
2023-05-09T01:55:55.195Z,16.00
2023-05-09T01:58:24.578Z,16.00
2023-05-09T02:00:54.392Z,16.00
2023-05-09T02:03:23.353Z,16.10
2023-05-09T02:05:51.752Z,16.10
2023-05-09T02:08:21.760Z,16.10
2023-05-09T02:10:50.241Z,16.00
2023-05-09T02:13:18.333Z,15.90
2023-05-09T02:15:46.487Z,15.90
2023-05-09T02:18:16.819Z,15.90
2023-05-09T02:20:44.741Z,15.70
2023-05-09T02:23:12.919Z,15.70
2023-05-09T02:25:41.625Z,15.70
2023-05-09T02:28:10.347Z,15.70
2023-05-09T02:30:43.080Z,15.70
2023-05-09T02:33:12.986Z,15.70
2023-05-09T02:35:43.909Z,15.70
2023-05-09T02:38:12.631Z,15.70
2023-05-09T02:40:43.219Z,15.70
2023-05-09T02:43:11.282Z,15.70
2023-05-09T02:45:39.148Z,15.70
2023-05-09T02:48:08.894Z,15.70
2023-05-09T02:50:38.248Z,15.70
2023-05-09T02:53:07.555Z,15.70
2023-05-09T02:55:35.439Z,15.70
2023-05-09T02:58:13.312Z,15.70
2023-05-09T03:00:43.472Z,15.70
2023-05-09T03:03:11.463Z,15.70
2023-05-09T03:05:39.369Z,15.70
2023-05-09T03:08:08.565Z,15.80
2023-05-09T03:10:36.423Z,15.70
2023-05-09T03:13:04.534Z,15.80
2023-05-09T03:15:32.420Z,15.80
2023-05-09T03:18:00.430Z,15.90
2023-05-09T03:20:28.299Z,15.90
2023-05-09T03:22:56.126Z,15.90
2023-05-09T03:25:26.352Z,15.80
2023-05-09T03:27:54.325Z,15.80
2023-05-09T03:30:22.166Z,15.70
2023-05-09T03:32:50.241Z,15.70
2023-05-09T03:35:18.111Z,15.70
2023-05-09T03:37:45.950Z,15.70
2023-05-09T03:40:14.197Z,15.60
2023-05-09T03:42:43.345Z,15.60
2023-05-09T03:45:12.214Z,15.50
2023-05-09T03:47:40.257Z,15.60
2023-05-09T03:50:09.393Z,15.50
2023-05-09T03:52:37.388Z,15.60
2023-05-09T03:55:06.021Z,15.60
2023-05-09T03:57:35.578Z,15.60
2023-05-09T04:00:06.639Z,15.50
2023-05-09T04:02:34.794Z,15.50
2023-05-09T04:05:03.244Z,15.60
2023-05-09T04:07:31.116Z,15.60
2023-05-09T04:09:59.034Z,15.60
2023-05-09T04:12:27.076Z,15.60
2023-05-09T04:14:54.941Z,15.60
2023-05-09T04:17:24.192Z,15.50
2023-05-09T04:19:52.021Z,15.60
2023-05-09T04:22:20.060Z,15.50
2023-05-09T04:24:47.871Z,15.70
2023-05-09T04:27:15.745Z,15.80
2023-05-09T04:29:43.651Z,15.80
2023-05-09T04:32:11.927Z,15.80
2023-05-09T04:34:41.191Z,15.80
2023-05-09T04:37:09.186Z,15.80
2023-05-09T04:39:37.027Z,15.90
2023-05-09T04:42:05.241Z,15.70
2023-05-09T04:44:33.201Z,15.60
2023-05-09T04:47:01.069Z,15.50
2023-05-09T04:49:28.924Z,15.60
2023-05-09T04:51:58.133Z,15.70
2023-05-09T04:54:26.044Z,15.70
2023-05-09T04:57:00.271Z,15.70
2023-05-09T04:59:34.472Z,15.60
2023-05-09T05:02:02.642Z,15.70
2023-05-09T05:04:31.679Z,15.70
2023-05-09T05:07:00.890Z,15.80
2023-05-09T05:09:28.699Z,15.80
2023-05-09T05:12:01.711Z,15.80
2023-05-09T05:14:30.439Z,15.80
2023-05-09T05:16:58.302Z,15.80
2023-05-09T05:19:26.147Z,15.90
2023-05-09T05:21:54.031Z,15.90
2023-05-09T05:24:23.197Z,16.00
2023-05-09T05:26:51.123Z,16.00
2023-05-09T05:29:19.047Z,15.90
2023-05-09T05:31:46.950Z,16.00
2023-05-09T05:34:16.591Z,16.00
2023-05-09T05:36:44.624Z,16.00
2023-05-09T05:39:12.480Z,16.10
2023-05-09T05:41:41.719Z,16.10
2023-05-09T05:44:09.562Z,16.20
2023-05-09T05:46:37.371Z,16.20
2023-05-09T05:49:05.290Z,16.20
2023-05-09T05:51:33.147Z,16.20
2023-05-09T05:54:01.018Z,16.30
2023-05-09T05:56:28.872Z,16.40
2023-05-09T05:58:58.100Z,16.60
2023-05-09T06:01:26.303Z,16.60
2023-05-09T06:03:55.713Z,16.60
2023-05-09T06:06:24.153Z,16.70
2023-05-09T06:08:51.972Z,16.80
2023-05-09T06:11:20.137Z,16.80
2023-05-09T06:13:47.969Z,16.90
2023-05-09T06:16:19.917Z,17.00
2023-05-09T06:18:48.721Z,17.00
2023-05-09T06:21:16.556Z,17.00
2023-05-09T06:23:57.608Z,17.00
2023-05-09T06:26:32.246Z,17.10
2023-05-09T06:29:00.159Z,17.20
2023-05-09T06:31:29.637Z,17.20
2023-05-09T06:33:57.705Z,17.20
2023-05-09T06:36:26.214Z,17.20
2023-05-09T06:38:54.085Z,17.40
2023-05-09T06:41:23.418Z,17.30
2023-05-09T06:43:51.337Z,17.50
2023-05-09T06:46:19.366Z,17.50
2023-05-09T06:48:48.590Z,17.70
2023-05-09T06:51:16.491Z,17.70
2023-05-09T06:53:44.350Z,17.70
2023-05-09T06:56:12.758Z,17.70
2023-05-09T06:58:40.858Z,17.90
2023-05-09T07:01:08.845Z,17.70
2023-05-09T07:03:36.717Z,17.90
2023-05-09T07:06:06.116Z,18.00
2023-05-09T07:08:33.925Z,18.00
2023-05-09T07:11:01.772Z,18.10
2023-05-09T07:13:29.692Z,18.10
2023-05-09T07:15:57.740Z,18.30
2023-05-09T07:18:25.698Z,18.30
2023-05-09T07:20:53.521Z,18.50
2023-05-09T07:23:22.680Z,18.50
2023-05-09T07:25:50.551Z,18.60
2023-05-09T07:28:19.066Z,18.70
2023-05-09T07:30:46.899Z,18.60
2023-05-09T07:33:14.770Z,18.40
2023-05-09T07:35:42.641Z,18.30
2023-05-09T07:38:11.012Z,18.40
2023-05-09T07:40:40.955Z,18.40
2023-05-09T07:43:08.918Z,18.30
2023-05-09T07:45:36.834Z,18.20
2023-05-09T07:48:05.116Z,18.10
2023-05-09T07:50:33.024Z,18.10
2023-05-09T07:53:01.002Z,18.00
2023-05-09T07:55:28.833Z,18.00
2023-05-09T07:57:58.078Z,17.80
2023-05-09T08:00:26.182Z,17.70
2023-05-09T08:02:54.513Z,17.80
2023-05-09T08:05:22.809Z,17.80
2023-05-09T08:07:50.735Z,17.90
2023-05-09T08:10:18.618Z,18.00
2023-05-09T08:12:46.492Z,18.10
2023-05-09T08:15:16.015Z,18.10
2023-05-09T08:17:44.161Z,18.00
2023-05-09T08:20:13.788Z,18.00
2023-05-09T08:22:41.707Z,17.80
2023-05-09T08:25:10.366Z,17.80
2023-05-09T08:27:38.255Z,17.80
2023-05-09T08:30:07.437Z,17.90
2023-05-09T08:32:36.932Z,18.00
2023-05-09T08:35:06.026Z,18.10
2023-05-09T08:37:33.883Z,18.00
2023-05-09T08:40:01.917Z,18.00
2023-05-09T08:42:31.962Z,18.00
2023-05-09T08:45:01.726Z,18.00
2023-05-09T08:47:30.411Z,17.90
2023-05-09T08:49:59.610Z,17.90
2023-05-09T08:52:27.687Z,17.90
2023-05-09T08:54:55.688Z,17.90
2023-05-09T08:57:23.725Z,17.80
2023-05-09T08:59:53.062Z,17.90
2023-05-09T09:02:21.507Z,17.80
2023-05-09T09:04:49.411Z,17.80
2023-05-09T09:07:19.318Z,17.80
2023-05-09T09:09:48.549Z,17.80
2023-05-09T09:12:18.491Z,17.70
2023-05-09T09:14:50.083Z,17.70
2023-05-09T09:17:20.902Z,17.80
2023-05-09T09:19:51.315Z,17.70
2023-05-09T09:22:21.350Z,17.80
2023-05-09T09:24:49.272Z,17.80
2023-05-09T09:27:17.139Z,17.80
2023-05-09T09:29:44.966Z,17.90
2023-05-09T09:32:12.897Z,18.00
2023-05-09T09:34:40.854Z,18.10
2023-05-09T09:37:09.131Z,18.20
2023-05-09T09:39:38.335Z,18.20
2023-05-09T09:42:13.091Z,18.10
2023-05-09T09:44:41.014Z,18.10
2023-05-09T09:47:11.054Z,18.10
2023-05-09T09:49:39.168Z,18.20
2023-05-09T09:52:07.003Z,18.20
2023-05-09T09:54:34.927Z,18.30
2023-05-09T09:57:04.334Z,18.30
2023-05-09T09:59:32.145Z,18.50
2023-05-09T10:02:03.997Z,18.70
2023-05-09T10:04:36.426Z,18.80
2023-05-09T10:07:06.373Z,19.00
2023-05-09T10:09:36.110Z,19.10
2023-05-09T10:12:07.145Z,19.10
2023-05-09T10:14:36.707Z,19.20
2023-05-09T10:17:05.976Z,19.30
2023-05-09T10:19:34.313Z,19.30
2023-05-09T10:22:05.939Z,19.30
2023-05-09T10:24:40.657Z,19.40
2023-05-09T10:27:12.069Z,19.40
2023-05-09T10:29:45.412Z,19.30
2023-05-09T10:32:17.545Z,19.40
2023-05-09T10:34:50.465Z,19.50
2023-05-09T10:37:19.079Z,19.50
2023-05-09T10:39:52.958Z,19.60
2023-05-09T10:42:23.964Z,19.80
2023-05-09T10:44:53.352Z,20.00
2023-05-09T10:47:22.390Z,20.20
2023-05-09T10:49:50.761Z,20.30
2023-05-09T10:52:18.900Z,20.10
2023-05-09T10:54:59.696Z,20.20
2023-05-09T10:57:29.806Z,20.30
2023-05-09T10:59:59.024Z,20.50
2023-05-09T11:02:29.544Z,20.60
2023-05-09T11:05:15.481Z,20.50
2023-05-09T11:07:44.185Z,20.60
2023-05-09T11:10:16.673Z,20.40
2023-05-09T11:12:59.792Z,20.40
2023-05-09T11:15:28.223Z,20.40
2023-05-09T11:18:07.487Z,20.30
2023-05-09T11:20:36.457Z,20.30
2023-05-09T11:23:06.820Z,20.30
2023-05-09T11:25:34.794Z,20.30
2023-05-09T11:28:04.083Z,20.20
2023-05-09T11:30:42.032Z,20.10
2023-05-09T11:33:24.050Z,19.90
2023-05-09T11:36:19.906Z,19.70
2023-05-09T11:38:48.513Z,19.70
2023-05-09T11:41:16.910Z,19.70
2023-05-09T11:43:46.391Z,19.70
2023-05-09T11:46:14.280Z,19.70
2023-05-09T11:48:42.857Z,19.80
2023-05-09T11:51:18.663Z,19.80
2023-05-09T11:53:47.124Z,19.90
2023-05-09T11:56:15.594Z,19.90
2023-05-09T11:58:44.059Z,20.10
2023-05-09T12:01:13.576Z,20.30
2023-05-09T12:03:44.726Z,20.40
2023-05-09T12:06:16.753Z,20.60
2023-05-09T12:08:45.135Z,20.90
2023-05-09T12:11:13.740Z,21.00
2023-05-09T12:13:48.515Z,20.90
2023-05-09T12:16:18.756Z,21.10
2023-05-09T12:18:47.693Z,21.20
2023-05-09T12:21:15.726Z,21.40
2023-05-09T12:23:43.684Z,21.80
2023-05-09T12:26:12.350Z,22.20
2023-05-09T12:28:40.737Z,22.50
2023-05-09T12:31:08.917Z,22.80
2023-05-09T12:33:40.125Z,23.00
2023-05-09T12:36:10.969Z,23.00
2023-05-09T12:38:39.350Z,22.50
2023-05-09T12:41:15.490Z,22.50
2023-05-09T12:43:51.425Z,22.50
2023-05-09T12:46:19.964Z,22.60
2023-05-09T12:48:49.596Z,22.60
2023-05-09T12:51:21.067Z,22.60
2023-05-09T12:53:49.139Z,22.50
2023-05-09T12:56:18.709Z,22.30
2023-05-09T12:58:51.216Z,22.00
2023-05-09T13:01:19.374Z,21.70
2023-05-09T13:03:53.552Z,21.30
2023-05-09T13:06:21.612Z,21.00
2023-05-09T13:09:00.207Z,20.70
2023-05-09T13:11:28.532Z,20.60
2023-05-09T13:13:56.753Z,20.60
2023-05-09T13:16:25.405Z,20.20
2023-05-09T13:18:54.689Z,20.00
2023-05-09T13:21:22.513Z,19.80
2023-05-09T13:23:51.217Z,19.80
2023-05-09T13:26:19.082Z,19.70
2023-05-09T13:28:46.945Z,19.70
2023-05-09T13:31:15.020Z,19.60
2023-05-09T13:33:42.954Z,19.60
2023-05-09T13:36:12.218Z,19.80
2023-05-09T13:38:40.858Z,19.80
2023-05-09T13:41:09.007Z,19.90
2023-05-09T13:43:37.762Z,20.00
2023-05-09T13:46:05.655Z,20.10
2023-05-09T13:48:33.566Z,20.10
2023-05-09T13:51:01.459Z,20.10
2023-05-09T13:53:31.594Z,20.10
2023-05-09T13:55:59.430Z,20.10
2023-05-09T13:58:27.295Z,20.10
2023-05-09T14:00:55.238Z,20.00
2023-05-09T14:03:23.151Z,20.10
2023-05-09T14:05:51.746Z,20.10
2023-05-09T14:08:21.258Z,20.40
2023-05-09T14:10:51.087Z,20.50
2023-05-09T14:13:19.146Z,20.70
2023-05-09T14:15:47.115Z,20.80
2023-05-09T14:18:18.379Z,21.10
2023-05-09T14:20:48.054Z,21.40
2023-05-09T14:23:15.890Z,21.50
2023-05-09T14:25:43.728Z,21.60
2023-05-09T14:28:12.957Z,21.60
2023-05-09T14:30:41.172Z,21.60
2023-05-09T14:33:08.996Z,21.60
2023-05-09T14:35:38.362Z,21.50
2023-05-09T14:38:07.568Z,21.40
2023-05-09T14:40:35.453Z,21.20
2023-05-09T14:43:03.851Z,21.00
2023-05-09T14:45:34.126Z,20.90
2023-05-09T14:48:02.607Z,20.80
2023-05-09T14:50:30.731Z,20.90
2023-05-09T14:52:59.673Z,20.90
2023-05-09T14:55:27.741Z,20.90
2023-05-09T14:57:56.187Z,21.00
2023-05-09T15:00:25.674Z,21.10
2023-05-09T15:02:55.232Z,21.20
2023-05-09T15:05:23.205Z,21.20
2023-05-09T15:07:51.047Z,21.30
2023-05-09T15:10:19.037Z,21.30
2023-05-09T15:12:47.028Z,21.40
2023-05-09T15:15:17.148Z,21.30
2023-05-09T15:17:45.437Z,21.20
2023-05-09T15:20:16.118Z,21.10
2023-05-09T15:22:44.554Z,21.10
2023-05-09T15:25:12.974Z,21.10
2023-05-09T15:27:41.203Z,21.10
2023-05-09T15:30:10.934Z,21.10
2023-05-09T15:32:41.419Z,21.10
2023-05-09T15:35:10.160Z,21.00
2023-05-09T15:37:39.397Z,21.00
2023-05-09T15:40:09.146Z,21.00
2023-05-09T15:42:37.160Z,21.00
2023-05-09T15:45:05.476Z,21.00
2023-05-09T15:47:33.357Z,20.80
2023-05-09T15:50:01.350Z,20.70
2023-05-09T15:52:29.214Z,20.70
2023-05-09T15:54:58.732Z,20.80
2023-05-09T15:57:26.725Z,20.80
2023-05-09T15:59:55.904Z,20.80
2023-05-09T16:02:24.117Z,20.70
2023-05-09T16:04:52.357Z,20.50
2023-05-09T16:07:20.629Z,20.30
2023-05-09T16:09:48.772Z,20.00
2023-05-09T16:12:18.023Z,19.80
2023-05-09T16:14:45.889Z,19.70
2023-05-09T16:17:13.668Z,19.70
2023-05-09T16:19:41.576Z,19.70
2023-05-09T16:22:09.822Z,19.60
2023-05-09T16:24:38.285Z,19.50
2023-05-09T16:27:06.095Z,19.20
2023-05-09T16:29:35.290Z,19.00
2023-05-09T16:32:03.470Z,18.80
2023-05-09T16:34:31.743Z,18.70
2023-05-09T16:36:59.564Z,18.70
2023-05-09T16:39:28.223Z,18.80
2023-05-09T16:41:56.203Z,18.80
2023-05-09T16:44:25.099Z,18.80
2023-05-09T16:46:54.274Z,18.90
2023-05-09T16:49:22.130Z,18.80
2023-05-09T16:51:49.947Z,18.80
2023-05-09T16:54:17.790Z,18.80
2023-05-09T16:56:45.633Z,18.90
2023-05-09T16:59:13.523Z,18.90
2023-05-09T17:01:41.905Z,18.90
2023-05-09T17:04:11.281Z,18.90
2023-05-09T17:06:39.162Z,19.00
2023-05-09T17:09:07.540Z,19.00
2023-05-09T17:11:35.549Z,19.00
2023-05-09T17:14:04.000Z,19.10
2023-05-09T17:16:31.853Z,19.00
2023-05-09T17:18:59.713Z,19.00
2023-05-09T17:21:29.240Z,19.00
2023-05-09T17:23:57.061Z,18.90
2023-05-09T17:26:25.817Z,18.90
2023-05-09T17:28:53.755Z,18.70
2023-05-09T17:31:22.023Z,18.70
2023-05-09T17:33:49.986Z,18.70
2023-05-09T17:36:17.784Z,18.60
2023-05-09T17:38:46.974Z,18.40
2023-05-09T17:41:14.867Z,18.10
2023-05-09T17:43:42.688Z,17.90
2023-05-09T17:46:10.920Z,17.90
2023-05-09T17:48:38.778Z,17.90
2023-05-09T17:51:07.015Z,17.80
2023-05-09T17:53:34.842Z,17.70
2023-05-09T17:56:04.124Z,17.60
2023-05-09T17:58:31.966Z,17.50
2023-05-09T18:00:59.826Z,17.50
2023-05-09T18:03:28.635Z,17.40
2023-05-09T18:05:57.149Z,17.30
2023-05-09T18:08:25.026Z,17.10
2023-05-09T18:10:54.482Z,17.00
2023-05-09T18:13:24.239Z,17.00
2023-05-09T18:15:54.414Z,17.00
2023-05-09T18:18:23.003Z,17.00
2023-05-09T18:20:50.899Z,17.10
2023-05-09T18:23:18.734Z,17.10
2023-05-09T18:25:46.538Z,17.20
2023-05-09T18:28:14.335Z,17.20
2023-05-09T18:30:43.609Z,17.20
2023-05-09T18:33:11.403Z,17.10
2023-05-09T18:35:39.242Z,17.10
2023-05-09T18:38:07.102Z,17.10
2023-05-09T18:40:37.049Z,17.00
2023-05-09T18:43:05.083Z,16.90
2023-05-09T18:45:33.699Z,16.70
2023-05-09T18:48:03.070Z,16.60
2023-05-09T18:50:31.357Z,16.70
2023-05-09T18:52:59.671Z,16.70
2023-05-09T18:55:27.521Z,16.80
2023-05-09T18:57:55.342Z,16.80
2023-05-09T19:00:23.313Z,16.80
2023-05-09T19:02:51.614Z,16.80
2023-05-09T19:05:21.168Z,16.90
2023-05-09T19:07:48.999Z,16.80
2023-05-09T19:10:18.179Z,16.80
2023-05-09T19:12:47.021Z,16.80
2023-05-09T19:15:14.970Z,16.80
2023-05-09T19:17:42.992Z,16.80
2023-05-09T19:20:12.471Z,16.80
2023-05-09T19:22:46.233Z,16.70
2023-05-09T19:25:14.067Z,16.80
2023-05-09T19:27:41.898Z,16.80
2023-05-09T19:30:10.793Z,16.70
2023-05-09T19:32:38.654Z,16.70
2023-05-09T19:35:06.987Z,16.80
2023-05-09T19:37:35.161Z,16.80
2023-05-09T19:40:06.129Z,16.80
2023-05-09T19:42:34.202Z,16.80
2023-05-09T19:45:02.156Z,16.80
2023-05-09T19:47:30.092Z,16.80
2023-05-09T19:49:57.948Z,16.90
2023-05-09T19:52:25.840Z,16.80
2023-05-09T19:54:54.165Z,16.80
2023-05-09T19:57:23.380Z,16.90
2023-05-09T19:59:52.053Z,16.90
2023-05-09T20:02:19.864Z,16.90
2023-05-09T20:04:49.838Z,16.90
2023-05-09T20:07:18.423Z,16.80
2023-05-09T20:09:46.338Z,16.80
2023-05-09T20:12:14.339Z,16.80
2023-05-09T20:14:44.230Z,16.70
2023-05-09T20:17:12.269Z,16.80
2023-05-09T20:19:40.197Z,16.70
2023-05-09T20:22:08.822Z,16.70
2023-05-09T20:24:36.696Z,16.70
2023-05-09T20:27:04.666Z,16.70
2023-05-09T20:29:32.508Z,16.70
2023-05-09T20:32:01.763Z,16.80
2023-05-09T20:34:29.643Z,16.70
2023-05-09T20:36:57.516Z,16.80
2023-05-09T20:39:26.641Z,16.90
2023-05-09T20:41:55.744Z,16.90
2023-05-09T20:44:23.604Z,16.90
2023-05-09T20:46:51.432Z,16.80
2023-05-09T20:49:20.625Z,16.90
2023-05-09T20:51:48.471Z,16.80
2023-05-09T20:54:16.906Z,16.60
2023-05-09T20:56:44.816Z,16.50
2023-05-09T20:59:12.691Z,16.30
2023-05-09T21:01:41.267Z,16.20
2023-05-09T21:04:09.148Z,16.20
2023-05-09T21:06:38.614Z,16.10
2023-05-09T21:09:06.569Z,16.00
2023-05-09T21:11:34.840Z,16.00
2023-05-09T21:14:02.698Z,16.00
2023-05-09T21:16:30.740Z,16.10
2023-05-09T21:19:02.320Z,16.00
2023-05-09T21:21:30.305Z,16.00
2023-05-09T21:23:59.630Z,15.90
2023-05-09T21:26:27.468Z,15.80
2023-05-09T21:28:55.383Z,15.80
2023-05-09T21:31:23.313Z,15.70
2023-05-09T21:33:52.028Z,15.80
2023-05-09T21:36:19.929Z,15.70
2023-05-09T21:38:47.758Z,15.80
2023-05-09T21:41:16.974Z,15.70
2023-05-09T21:43:44.813Z,15.60
2023-05-09T21:46:12.661Z,15.60
2023-05-09T21:48:40.543Z,15.60
2023-05-09T21:51:09.523Z,15.40
2023-05-09T21:53:37.377Z,15.40
2023-05-09T21:56:06.611Z,15.50
2023-05-09T21:58:35.799Z,15.40
2023-05-09T22:01:03.664Z,15.50
2023-05-09T22:03:31.581Z,15.70
2023-05-09T22:05:59.459Z,15.80
2023-05-09T22:08:27.374Z,15.90
2023-05-09T22:10:55.294Z,15.90
2023-05-09T22:13:23.217Z,15.90
2023-05-09T22:15:52.498Z,15.80
2023-05-09T22:18:20.407Z,15.80
2023-05-09T22:20:48.371Z,15.70
2023-05-09T22:23:16.210Z,15.60
2023-05-09T22:25:44.093Z,15.60
2023-05-09T22:28:11.966Z,15.70
2023-05-09T22:30:39.782Z,15.90
2023-05-09T22:33:28.582Z,15.90
2023-05-09T22:35:56.402Z,16.00
2023-05-09T22:38:24.243Z,15.90
2023-05-09T22:40:52.094Z,15.90
2023-05-09T22:43:20.301Z,15.90
2023-05-09T22:45:48.207Z,15.80
2023-05-09T22:48:16.331Z,15.70
2023-05-09T22:50:45.544Z,15.70
2023-05-09T22:53:13.390Z,15.70
2023-05-09T22:55:41.352Z,15.70
2023-05-09T22:58:09.268Z,15.60
2023-05-09T23:00:37.368Z,15.50
2023-05-09T23:03:05.637Z,15.60
2023-05-09T23:05:33.554Z,15.50
2023-05-09T23:08:02.807Z,15.30
2023-05-09T23:10:30.850Z,15.10
2023-05-09T23:12:58.695Z,15.00
2023-05-09T23:15:26.615Z,14.80
2023-05-09T23:17:54.580Z,14.60
2023-05-09T23:20:22.501Z,14.60
2023-05-09T23:22:50.383Z,14.50
2023-05-09T23:25:19.911Z,14.40
2023-05-09T23:27:48.192Z,14.30
2023-05-09T23:30:16.331Z,14.20
2023-05-09T23:32:44.409Z,14.20
2023-05-09T23:35:12.571Z,14.20
2023-05-09T23:37:40.444Z,14.10
2023-05-09T23:40:09.411Z,14.10
2023-05-09T23:42:38.622Z,14.10
2023-05-09T23:45:07.516Z,14.10
2023-05-09T23:47:35.448Z,14.10
2023-05-09T23:50:03.349Z,14.20
2023-05-09T23:52:31.565Z,14.10
2023-05-09T23:54:59.390Z,14.00
2023-05-09T23:57:27.261Z,14.00
2023-05-09T23:59:56.425Z,14.00
